sensor_id;sensor_type;location;lat;lon;timestamp;P1;durP1;ratioP1;P2;durP2;ratioP2
24813;SDS011;12904;50.088;11.414;2022-07-23T00:00:01;7.70;;;7.00;;
24813;SDS011;12904;50.088;11.414;2022-07-23T00:02:28;9.43;;;7.30;;
24813;SDS011;12904;50.088;11.414;2022-07-23T00:04:53;7.63;;;7.03;;
24813;SDS011;12904;50.088;11.414;2022-07-23T00:07:19;7.45;;;6.85;;
24813;SDS011;12904;50.088;11.414;2022-07-23T00:09:45;9.65;;;7.18;;
24813;SDS011;12904;50.088;11.414;2022-07-23T00:12:10;7.38;;;6.75;;
24813;SDS011;12904;50.088;11.414;2022-07-23T00:14:36;8.70;;;7.03;;
24813;SDS011;12904;50.088;11.414;2022-07-23T00:17:02;7.95;;;7.22;;
24813;SDS011;12904;50.088;11.414;2022-07-23T00:19:27;8.38;;;7.45;;
24813;SDS011;12904;50.088;11.414;2022-07-23T00:21:54;11.07;;;6.65;;
24813;SDS011;12904;50.088;11.414;2022-07-23T00:24:19;9.30;;;7.15;;
24813;SDS011;12904;50.088;11.414;2022-07-23T00:26:45;9.43;;;6.72;;
24813;SDS011;12904;50.088;11.414;2022-07-23T00:29:11;7.10;;;6.55;;
24813;SDS011;12904;50.088;11.414;2022-07-23T00:31:37;8.23;;;7.28;;
24813;SDS011;12904;50.088;11.414;2022-07-23T00:34:02;7.47;;;6.88;;
24813;SDS011;12904;50.088;11.414;2022-07-23T00:36:28;9.23;;;6.82;;
24813;SDS011;12904;50.088;11.414;2022-07-23T00:38:56;7.25;;;6.60;;
24813;SDS011;12904;50.088;11.414;2022-07-23T00:41:21;7.47;;;6.78;;
24813;SDS011;12904;50.088;11.414;2022-07-23T00:43:47;11.23;;;6.30;;
24813;SDS011;12904;50.088;11.414;2022-07-23T00:46:18;10.05;;;7.25;;
24813;SDS011;12904;50.088;11.414;2022-07-23T00:48:47;7.57;;;6.60;;
24813;SDS011;12904;50.088;11.414;2022-07-23T00:51:14;6.80;;;6.20;;
24813;SDS011;12904;50.088;11.414;2022-07-23T00:53:41;7.40;;;6.80;;
24813;SDS011;12904;50.088;11.414;2022-07-23T00:56:07;10.60;;;6.90;;
24813;SDS011;12904;50.088;11.414;2022-07-23T00:58:34;7.28;;;6.57;;
24813;SDS011;12904;50.088;11.414;2022-07-23T01:01:00;8.52;;;7.55;;
24813;SDS011;12904;50.088;11.414;2022-07-23T01:03:26;7.93;;;7.28;;
24813;SDS011;12904;50.088;11.414;2022-07-23T01:05:52;7.32;;;6.75;;
24813;SDS011;12904;50.088;11.414;2022-07-23T01:08:18;7.65;;;7.00;;
24813;SDS011;12904;50.088;11.414;2022-07-23T01:10:45;10.57;;;7.28;;
24813;SDS011;12904;50.088;11.414;2022-07-23T01:13:13;10.68;;;7.32;;
24813;SDS011;12904;50.088;11.414;2022-07-23T01:15:39;8.43;;;6.57;;
24813;SDS011;12904;50.088;11.414;2022-07-23T01:18:05;12.93;;;7.18;;
24813;SDS011;12904;50.088;11.414;2022-07-23T01:20:32;8.63;;;7.57;;
24813;SDS011;12904;50.088;11.414;2022-07-23T01:22:59;8.63;;;7.85;;
24813;SDS011;12904;50.088;11.414;2022-07-23T01:25:24;8.70;;;7.90;;
24813;SDS011;12904;50.088;11.414;2022-07-23T01:27:51;7.93;;;7.22;;
24813;SDS011;12904;50.088;11.414;2022-07-23T01:30:18;9.40;;;8.32;;
24813;SDS011;12904;50.088;11.414;2022-07-23T01:32:44;8.88;;;8.07;;
24813;SDS011;12904;50.088;11.414;2022-07-23T01:35:10;9.82;;;7.88;;
24813;SDS011;12904;50.088;11.414;2022-07-23T01:37:36;9.60;;;8.68;;
24813;SDS011;12904;50.088;11.414;2022-07-23T01:40:02;9.18;;;8.38;;
24813;SDS011;12904;50.088;11.414;2022-07-23T01:42:29;11.88;;;8.32;;
24813;SDS011;12904;50.088;11.414;2022-07-23T01:44:55;8.77;;;7.90;;
24813;SDS011;12904;50.088;11.414;2022-07-23T01:47:20;8.43;;;7.53;;
24813;SDS011;12904;50.088;11.414;2022-07-23T01:49:46;9.18;;;8.38;;
24813;SDS011;12904;50.088;11.414;2022-07-23T01:52:12;9.15;;;8.32;;
24813;SDS011;12904;50.088;11.414;2022-07-23T01:54:38;9.98;;;7.40;;
24813;SDS011;12904;50.088;11.414;2022-07-23T01:57:04;8.20;;;7.57;;
24813;SDS011;12904;50.088;11.414;2022-07-23T01:59:31;11.98;;;8.02;;
24813;SDS011;12904;50.088;11.414;2022-07-23T02:01:57;9.48;;;8.20;;
24813;SDS011;12904;50.088;11.414;2022-07-23T02:04:24;10.88;;;7.60;;
24813;SDS011;12904;50.088;11.414;2022-07-23T02:06:51;10.27;;;7.35;;
24813;SDS011;12904;50.088;11.414;2022-07-23T02:09:17;10.25;;;7.70;;
24813;SDS011;12904;50.088;11.414;2022-07-23T02:11:44;7.90;;;7.28;;
24813;SDS011;12904;50.088;11.414;2022-07-23T02:14:10;10.30;;;7.47;;
24813;SDS011;12904;50.088;11.414;2022-07-23T02:16:36;7.70;;;7.10;;
24813;SDS011;12904;50.088;11.414;2022-07-23T02:19:02;8.38;;;7.57;;
24813;SDS011;12904;50.088;11.414;2022-07-23T02:21:28;9.90;;;7.47;;
24813;SDS011;12904;50.088;11.414;2022-07-23T02:23:54;7.68;;;7.05;;
24813;SDS011;12904;50.088;11.414;2022-07-23T02:26:19;7.72;;;7.03;;
24813;SDS011;12904;50.088;11.414;2022-07-23T02:28:45;7.40;;;6.90;;
24813;SDS011;12904;50.088;11.414;2022-07-23T02:31:11;9.32;;;6.93;;
24813;SDS011;12904;50.088;11.414;2022-07-23T02:33:36;7.43;;;6.78;;
24813;SDS011;12904;50.088;11.414;2022-07-23T02:36:02;7.70;;;6.82;;
24813;SDS011;12904;50.088;11.414;2022-07-23T02:38:28;13.35;;;7.15;;
24813;SDS011;12904;50.088;11.414;2022-07-23T02:40:53;7.80;;;7.20;;
24813;SDS011;12904;50.088;11.414;2022-07-23T02:43:19;7.95;;;7.25;;
24813;SDS011;12904;50.088;11.414;2022-07-23T02:45:45;8.20;;;7.60;;
24813;SDS011;12904;50.088;11.414;2022-07-23T02:48:10;8.35;;;7.47;;
24813;SDS011;12904;50.088;11.414;2022-07-23T02:50:39;8.77;;;7.88;;
24813;SDS011;12904;50.088;11.414;2022-07-23T02:53:05;8.38;;;7.57;;
24813;SDS011;12904;50.088;11.414;2022-07-23T02:55:30;8.63;;;7.72;;
24813;SDS011;12904;50.088;11.414;2022-07-23T02:57:56;11.15;;;8.30;;
24813;SDS011;12904;50.088;11.414;2022-07-23T03:00:22;9.13;;;7.80;;
24813;SDS011;12904;50.088;11.414;2022-07-23T03:02:48;9.20;;;8.25;;
24813;SDS011;12904;50.088;11.414;2022-07-23T03:05:14;9.02;;;8.23;;
24813;SDS011;12904;50.088;11.414;2022-07-23T03:07:39;9.00;;;8.30;;
24813;SDS011;12904;50.088;11.414;2022-07-23T03:10:05;9.30;;;8.40;;
24813;SDS011;12904;50.088;11.414;2022-07-23T03:12:31;9.35;;;8.55;;
24813;SDS011;12904;50.088;11.414;2022-07-23T03:14:57;10.05;;;8.77;;
24813;SDS011;12904;50.088;11.414;2022-07-23T03:17:23;9.20;;;8.35;;
24813;SDS011;12904;50.088;11.414;2022-07-23T03:19:48;9.30;;;8.52;;
24813;SDS011;12904;50.088;11.414;2022-07-23T03:22:14;9.70;;;8.90;;
24813;SDS011;12904;50.088;11.414;2022-07-23T03:24:40;10.48;;;9.40;;
24813;SDS011;12904;50.088;11.414;2022-07-23T03:27:24;9.88;;;9.07;;
24813;SDS011;12904;50.088;11.414;2022-07-23T03:29:52;10.75;;;8.93;;
24813;SDS011;12904;50.088;11.414;2022-07-23T03:32:19;10.27;;;9.32;;
24813;SDS011;12904;50.088;11.414;2022-07-23T03:34:46;10.05;;;9.32;;
24813;SDS011;12904;50.088;11.414;2022-07-23T03:37:11;12.02;;;8.80;;
24813;SDS011;12904;50.088;11.414;2022-07-23T03:39:37;11.18;;;9.40;;
24813;SDS011;12904;50.088;11.414;2022-07-23T03:42:03;9.85;;;9.13;;
24813;SDS011;12904;50.088;11.414;2022-07-23T03:44:29;10.75;;;9.57;;
24813;SDS011;12904;50.088;11.414;2022-07-23T03:46:54;9.40;;;8.70;;
24813;SDS011;12904;50.088;11.414;2022-07-23T03:49:20;10.98;;;9.95;;
24813;SDS011;12904;50.088;11.414;2022-07-23T03:51:46;11.23;;;10.10;;
24813;SDS011;12904;50.088;11.414;2022-07-23T03:54:12;10.60;;;9.63;;
24813;SDS011;12904;50.088;11.414;2022-07-23T03:56:37;10.48;;;9.40;;
24813;SDS011;12904;50.088;11.414;2022-07-23T03:59:03;10.77;;;9.77;;
24813;SDS011;12904;50.088;11.414;2022-07-23T04:01:29;13.48;;;11.20;;
24813;SDS011;12904;50.088;11.414;2022-07-23T04:03:54;10.15;;;9.25;;
24813;SDS011;12904;50.088;11.414;2022-07-23T04:06:20;10.63;;;9.70;;
24813;SDS011;12904;50.088;11.414;2022-07-23T04:08:46;10.80;;;9.85;;
24813;SDS011;12904;50.088;11.414;2022-07-23T04:11:11;10.23;;;9.38;;
24813;SDS011;12904;50.088;11.414;2022-07-23T04:13:37;8.82;;;8.13;;
24813;SDS011;12904;50.088;11.414;2022-07-23T04:16:03;11.80;;;9.25;;
24813;SDS011;12904;50.088;11.414;2022-07-23T04:18:29;9.80;;;9.00;;
24813;SDS011;12904;50.088;11.414;2022-07-23T04:20:54;10.45;;;9.40;;
24813;SDS011;12904;50.088;11.414;2022-07-23T04:23:20;10.15;;;9.43;;
24813;SDS011;12904;50.088;11.414;2022-07-23T04:25:46;9.50;;;8.73;;
24813;SDS011;12904;50.088;11.414;2022-07-23T04:28:12;14.07;;;9.05;;
24813;SDS011;12904;50.088;11.414;2022-07-23T04:30:37;10.05;;;9.25;;
24813;SDS011;12904;50.088;11.414;2022-07-23T04:33:03;10.38;;;9.57;;
24813;SDS011;12904;50.088;11.414;2022-07-23T04:35:32;9.68;;;8.88;;
24813;SDS011;12904;50.088;11.414;2022-07-23T04:37:58;10.18;;;9.05;;
24813;SDS011;12904;50.088;11.414;2022-07-23T04:40:24;11.07;;;9.20;;
24813;SDS011;12904;50.088;11.414;2022-07-23T04:42:50;9.82;;;9.13;;
24813;SDS011;12904;50.088;11.414;2022-07-23T04:45:16;10.55;;;8.50;;
24813;SDS011;12904;50.088;11.414;2022-07-23T04:47:42;8.73;;;7.93;;
24813;SDS011;12904;50.088;11.414;2022-07-23T04:50:07;8.32;;;7.72;;
24813;SDS011;12904;50.088;11.414;2022-07-23T04:52:33;9.23;;;8.43;;
24813;SDS011;12904;50.088;11.414;2022-07-23T04:54:59;9.32;;;8.48;;
24813;SDS011;12904;50.088;11.414;2022-07-23T04:57:25;9.68;;;8.88;;
24813;SDS011;12904;50.088;11.414;2022-07-23T04:59:50;9.57;;;8.77;;
24813;SDS011;12904;50.088;11.414;2022-07-23T05:02:16;8.90;;;8.05;;
24813;SDS011;12904;50.088;11.414;2022-07-23T05:04:41;10.65;;;9.25;;
24813;SDS011;12904;50.088;11.414;2022-07-23T05:07:07;8.30;;;7.57;;
24813;SDS011;12904;50.088;11.414;2022-07-23T05:09:33;10.50;;;6.70;;
24813;SDS011;12904;50.088;11.414;2022-07-23T05:11:59;8.95;;;6.93;;
24813;SDS011;12904;50.088;11.414;2022-07-23T05:14:25;6.80;;;6.25;;
24813;SDS011;12904;50.088;11.414;2022-07-23T05:16:50;9.57;;;7.47;;
24813;SDS011;12904;50.088;11.414;2022-07-23T05:19:16;7.45;;;6.28;;
24813;SDS011;12904;50.088;11.414;2022-07-23T05:21:42;7.80;;;7.10;;
24813;SDS011;12904;50.088;11.414;2022-07-23T05:24:07;8.13;;;7.35;;
24813;SDS011;12904;50.088;11.414;2022-07-23T05:26:33;6.78;;;6.25;;
24813;SDS011;12904;50.088;11.414;2022-07-23T05:28:59;5.90;;;5.30;;
24813;SDS011;12904;50.088;11.414;2022-07-23T05:31:24;9.07;;;6.07;;
24813;SDS011;12904;50.088;11.414;2022-07-23T05:33:50;6.45;;;4.78;;
24813;SDS011;12904;50.088;11.414;2022-07-23T05:36:16;7.75;;;4.85;;
24813;SDS011;12904;50.088;11.414;2022-07-23T05:38:41;5.80;;;4.70;;
24813;SDS011;12904;50.088;11.414;2022-07-23T05:41:07;6.18;;;5.68;;
24813;SDS011;12904;50.088;11.414;2022-07-23T05:43:33;7.82;;;5.60;;
24813;SDS011;12904;50.088;11.414;2022-07-23T05:45:58;8.02;;;5.28;;
24813;SDS011;12904;50.088;11.414;2022-07-23T05:48:24;5.38;;;4.90;;
24813;SDS011;12904;50.088;11.414;2022-07-23T05:50:50;5.65;;;5.05;;
24813;SDS011;12904;50.088;11.414;2022-07-23T05:53:15;5.22;;;4.82;;
24813;SDS011;12904;50.088;11.414;2022-07-23T05:55:41;7.90;;;4.50;;
24813;SDS011;12904;50.088;11.414;2022-07-23T05:58:07;4.30;;;3.90;;
24813;SDS011;12904;50.088;11.414;2022-07-23T06:00:33;5.18;;;4.47;;
24813;SDS011;12904;50.088;11.414;2022-07-23T06:03:00;5.25;;;3.78;;
24813;SDS011;12904;50.088;11.414;2022-07-23T06:05:25;4.05;;;3.67;;
24813;SDS011;12904;50.088;11.414;2022-07-23T06:07:51;3.70;;;3.40;;
24813;SDS011;12904;50.088;11.414;2022-07-23T06:10:18;3.60;;;3.30;;
24813;SDS011;12904;50.088;11.414;2022-07-23T06:12:44;3.58;;;3.25;;
24813;SDS011;12904;50.088;11.414;2022-07-23T06:15:12;4.38;;;3.47;;
24813;SDS011;12904;50.088;11.414;2022-07-23T06:17:39;6.22;;;3.30;;
24813;SDS011;12904;50.088;11.414;2022-07-23T06:20:05;4.43;;;4.03;;
24813;SDS011;12904;50.088;11.414;2022-07-23T06:22:32;4.00;;;3.60;;
24813;SDS011;12904;50.088;11.414;2022-07-23T06:24:58;5.40;;;4.68;;
24813;SDS011;12904;50.088;11.414;2022-07-23T06:27:23;5.35;;;4.93;;
24813;SDS011;12904;50.088;11.414;2022-07-23T06:29:49;4.97;;;4.50;;
24813;SDS011;12904;50.088;11.414;2022-07-23T06:32:15;4.82;;;4.35;;
24813;SDS011;12904;50.088;11.414;2022-07-23T06:34:40;6.40;;;4.88;;
24813;SDS011;12904;50.088;11.414;2022-07-23T06:37:06;6.68;;;4.18;;
24813;SDS011;12904;50.088;11.414;2022-07-23T06:39:32;4.47;;;4.18;;
24813;SDS011;12904;50.088;11.414;2022-07-23T06:41:58;4.30;;;4.00;;
24813;SDS011;12904;50.088;11.414;2022-07-23T06:44:24;6.00;;;4.20;;
24813;SDS011;12904;50.088;11.414;2022-07-23T06:46:49;4.60;;;3.83;;
24813;SDS011;12904;50.088;11.414;2022-07-23T06:49:15;4.22;;;3.80;;
24813;SDS011;12904;50.088;11.414;2022-07-23T06:51:41;4.82;;;3.65;;
24813;SDS011;12904;50.088;11.414;2022-07-23T06:54:06;5.22;;;4.07;;
24813;SDS011;12904;50.088;11.414;2022-07-23T06:56:32;4.70;;;4.18;;
24813;SDS011;12904;50.088;11.414;2022-07-23T06:58:57;4.88;;;4.43;;
24813;SDS011;12904;50.088;11.414;2022-07-23T07:01:23;4.28;;;3.97;;
24813;SDS011;12904;50.088;11.414;2022-07-23T07:03:49;4.80;;;4.22;;
24813;SDS011;12904;50.088;11.414;2022-07-23T07:06:15;5.07;;;4.38;;
24813;SDS011;12904;50.088;11.414;2022-07-23T07:08:40;6.22;;;4.88;;
24813;SDS011;12904;50.088;11.414;2022-07-23T07:11:08;5.30;;;4.85;;
24813;SDS011;12904;50.088;11.414;2022-07-23T07:13:33;12.82;;;5.53;;
24813;SDS011;12904;50.088;11.414;2022-07-23T07:15:59;6.47;;;4.88;;
24813;SDS011;12904;50.088;11.414;2022-07-23T07:18:25;5.97;;;5.38;;
24813;SDS011;12904;50.088;11.414;2022-07-23T07:20:50;4.82;;;4.32;;
24813;SDS011;12904;50.088;11.414;2022-07-23T07:23:16;7.22;;;5.20;;
24813;SDS011;12904;50.088;11.414;2022-07-23T07:25:42;5.43;;;4.95;;
24813;SDS011;12904;50.088;11.414;2022-07-23T07:28:07;6.10;;;4.50;;
24813;SDS011;12904;50.088;11.414;2022-07-23T07:30:33;4.82;;;4.35;;
24813;SDS011;12904;50.088;11.414;2022-07-23T07:32:59;6.90;;;4.15;;
24813;SDS011;12904;50.088;11.414;2022-07-23T07:35:25;4.38;;;3.97;;
24813;SDS011;12904;50.088;11.414;2022-07-23T07:37:50;7.13;;;5.85;;
24813;SDS011;12904;50.088;11.414;2022-07-23T07:40:16;4.45;;;4.15;;
24813;SDS011;12904;50.088;11.414;2022-07-23T07:42:49;4.60;;;4.28;;
24813;SDS011;12904;50.088;11.414;2022-07-23T07:45:16;7.63;;;4.43;;
24813;SDS011;12904;50.088;11.414;2022-07-23T07:47:41;7.80;;;5.13;;
24813;SDS011;12904;50.088;11.414;2022-07-23T07:50:08;5.03;;;4.53;;
24813;SDS011;12904;50.088;11.414;2022-07-23T07:52:35;5.22;;;4.80;;
24813;SDS011;12904;50.088;11.414;2022-07-23T07:55:04;5.93;;;5.32;;
24813;SDS011;12904;50.088;11.414;2022-07-23T07:57:31;7.05;;;5.15;;
24813;SDS011;12904;50.088;11.414;2022-07-23T07:59:57;6.55;;;5.28;;
24813;SDS011;12904;50.088;11.414;2022-07-23T08:02:23;4.75;;;4.32;;
24813;SDS011;12904;50.088;11.414;2022-07-23T08:04:48;6.30;;;5.10;;
24813;SDS011;12904;50.088;11.414;2022-07-23T08:07:14;5.20;;;4.50;;
24813;SDS011;12904;50.088;11.414;2022-07-23T08:09:40;6.10;;;5.50;;
24813;SDS011;12904;50.088;11.414;2022-07-23T08:12:06;5.38;;;4.88;;
24813;SDS011;12904;50.088;11.414;2022-07-23T08:14:32;5.55;;;5.05;;
24813;SDS011;12904;50.088;11.414;2022-07-23T08:16:58;6.68;;;4.95;;
24813;SDS011;12904;50.088;11.414;2022-07-23T08:19:23;5.57;;;5.18;;
24813;SDS011;12904;50.088;11.414;2022-07-23T08:21:49;6.72;;;6.13;;
24813;SDS011;12904;50.088;11.414;2022-07-23T08:24:15;5.90;;;5.47;;
24813;SDS011;12904;50.088;11.414;2022-07-23T08:26:40;9.23;;;5.47;;
24813;SDS011;12904;50.088;11.414;2022-07-23T08:29:06;5.93;;;5.40;;
24813;SDS011;12904;50.088;11.414;2022-07-23T08:31:32;6.63;;;5.70;;
24813;SDS011;12904;50.088;11.414;2022-07-23T08:33:58;6.63;;;6.13;;
24813;SDS011;12904;50.088;11.414;2022-07-23T08:36:25;5.93;;;5.53;;
24813;SDS011;12904;50.088;11.414;2022-07-23T08:38:52;6.78;;;6.18;;
24813;SDS011;12904;50.088;11.414;2022-07-23T08:41:19;5.60;;;5.10;;
24813;SDS011;12904;50.088;11.414;2022-07-23T08:43:45;6.97;;;6.22;;
24813;SDS011;12904;50.088;11.414;2022-07-23T08:46:11;6.72;;;5.72;;
24813;SDS011;12904;50.088;11.414;2022-07-23T08:48:39;12.70;;;5.82;;
24813;SDS011;12904;50.088;11.414;2022-07-23T08:51:05;6.72;;;6.07;;
24813;SDS011;12904;50.088;11.414;2022-07-23T08:53:32;6.35;;;5.68;;
24813;SDS011;12904;50.088;11.414;2022-07-23T08:56:01;6.03;;;5.45;;
24813;SDS011;12904;50.088;11.414;2022-07-23T08:58:28;6.13;;;5.50;;
24813;SDS011;12904;50.088;11.414;2022-07-23T09:00:54;6.70;;;6.10;;
24813;SDS011;12904;50.088;11.414;2022-07-23T09:03:31;8.10;;;5.90;;
24813;SDS011;12904;50.088;11.414;2022-07-23T09:05:58;9.80;;;6.88;;
24813;SDS011;12904;50.088;11.414;2022-07-23T09:08:39;9.90;;;6.88;;
24813;SDS011;12904;50.088;11.414;2022-07-23T09:11:15;7.17;;;6.47;;
24813;SDS011;12904;50.088;11.414;2022-07-23T09:16:12;6.72;;;6.10;;
24813;SDS011;12904;50.088;11.414;2022-07-23T09:19:02;6.88;;;6.30;;
24813;SDS011;12904;50.088;11.414;2022-07-23T09:26:42;6.78;;;5.78;;
24813;SDS011;12904;50.088;11.414;2022-07-23T09:29:19;6.40;;;5.82;;
24813;SDS011;12904;50.088;11.414;2022-07-23T09:31:57;5.95;;;5.45;;
24813;SDS011;12904;50.088;11.414;2022-07-23T09:34:27;5.78;;;5.35;;
24813;SDS011;12904;50.088;11.414;2022-07-23T09:36:56;13.02;;;5.80;;
24813;SDS011;12904;50.088;11.414;2022-07-23T09:41:53;5.28;;;4.78;;
24813;SDS011;12904;50.088;11.414;2022-07-23T09:44:19;6.88;;;4.38;;
24813;SDS011;12904;50.088;11.414;2022-07-23T09:46:49;5.95;;;4.38;;
24813;SDS011;12904;50.088;11.414;2022-07-23T09:51:46;6.03;;;5.20;;
24813;SDS011;12904;50.088;11.414;2022-07-23T09:56:52;4.57;;;4.07;;
24813;SDS011;12904;50.088;11.414;2022-07-23T09:59:30;4.60;;;4.30;;
24813;SDS011;12904;50.088;11.414;2022-07-23T10:01:59;5.22;;;4.22;;
24813;SDS011;12904;50.088;11.414;2022-07-23T10:04:26;13.93;;;5.00;;
24813;SDS011;12904;50.088;11.414;2022-07-23T10:06:54;6.82;;;4.95;;
24813;SDS011;12904;50.088;11.414;2022-07-23T10:09:23;10.63;;;4.72;;
24813;SDS011;12904;50.088;11.414;2022-07-23T10:11:52;4.10;;;3.80;;
24813;SDS011;12904;50.088;11.414;2022-07-23T10:14:32;6.93;;;4.10;;
24813;SDS011;12904;50.088;11.414;2022-07-23T10:17:00;4.30;;;4.00;;
24813;SDS011;12904;50.088;11.414;2022-07-23T10:19:27;5.05;;;4.30;;
24813;SDS011;12904;50.088;11.414;2022-07-23T10:22:12;6.03;;;4.82;;
24813;SDS011;12904;50.088;11.414;2022-07-23T10:35:48;6.43;;;3.78;;
24813;SDS011;12904;50.088;11.414;2022-07-23T10:38:27;4.32;;;3.92;;
24813;SDS011;12904;50.088;11.414;2022-07-23T10:41:02;12.48;;;4.10;;
24813;SDS011;12904;50.088;11.414;2022-07-23T10:43:29;4.00;;;3.67;;
24813;SDS011;12904;50.088;11.414;2022-07-23T10:45:55;16.70;;;4.32;;
24813;SDS011;12904;50.088;11.414;2022-07-23T10:48:41;7.45;;;4.03;;
24813;SDS011;12904;50.088;11.414;2022-07-23T10:51:16;5.93;;;4.20;;
24813;SDS011;12904;50.088;11.414;2022-07-23T10:54:00;4.90;;;4.35;;
24813;SDS011;12904;50.088;11.414;2022-07-23T10:59:19;5.03;;;4.20;;
24813;SDS011;12904;50.088;11.414;2022-07-23T11:01:45;5.28;;;3.92;;
24813;SDS011;12904;50.088;11.414;2022-07-23T11:04:11;5.57;;;3.70;;
24813;SDS011;12904;50.088;11.414;2022-07-23T11:17:22;7.55;;;3.90;;
24813;SDS011;12904;50.088;11.414;2022-07-23T11:22:37;4.43;;;4.03;;
24813;SDS011;12904;50.088;11.414;2022-07-23T11:27:40;4.28;;;3.97;;
24813;SDS011;12904;50.088;11.414;2022-07-23T11:30:11;5.43;;;3.33;;
24813;SDS011;12904;50.088;11.414;2022-07-23T11:35:34;7.78;;;5.70;;
24813;SDS011;12904;50.088;11.414;2022-07-23T11:40:33;5.75;;;4.35;;
24813;SDS011;12904;50.088;11.414;2022-07-23T11:43:00;4.20;;;3.78;;
24813;SDS011;12904;50.088;11.414;2022-07-23T11:45:35;7.07;;;4.30;;
24813;SDS011;12904;50.088;11.414;2022-07-23T11:48:03;6.10;;;4.10;;
24813;SDS011;12904;50.088;11.414;2022-07-23T11:50:31;9.40;;;3.67;;
24813;SDS011;12904;50.088;11.414;2022-07-23T11:52:57;4.47;;;4.07;;
24813;SDS011;12904;50.088;11.414;2022-07-23T11:55:23;7.43;;;4.20;;
24813;SDS011;12904;50.088;11.414;2022-07-23T11:57:50;5.53;;;4.60;;
24813;SDS011;12904;50.088;11.414;2022-07-23T12:00:18;6.22;;;4.20;;
24813;SDS011;12904;50.088;11.414;2022-07-23T12:02:51;6.82;;;4.95;;
24813;SDS011;12904;50.088;11.414;2022-07-23T12:07:49;5.05;;;4.50;;
24813;SDS011;12904;50.088;11.414;2022-07-23T12:10:20;4.80;;;4.47;;
24813;SDS011;12904;50.088;11.414;2022-07-23T12:15:29;4.25;;;3.70;;
24813;SDS011;12904;50.088;11.414;2022-07-23T12:17:57;5.10;;;3.85;;
24813;SDS011;12904;50.088;11.414;2022-07-23T12:20:26;4.32;;;4.03;;
24813;SDS011;12904;50.088;11.414;2022-07-23T12:22:58;4.43;;;4.03;;
24813;SDS011;12904;50.088;11.414;2022-07-23T12:25:26;4.97;;;4.57;;
24813;SDS011;12904;50.088;11.414;2022-07-23T12:28:01;4.68;;;4.00;;
24813;SDS011;12904;50.088;11.414;2022-07-23T12:31:05;4.82;;;4.25;;
24813;SDS011;12904;50.088;11.414;2022-07-23T12:33:28;4.60;;;4.30;;
24813;SDS011;12904;50.088;11.414;2022-07-23T12:35:55;6.13;;;4.60;;
24813;SDS011;12904;50.088;11.414;2022-07-23T12:38:25;4.47;;;4.07;;
24813;SDS011;12904;50.088;11.414;2022-07-23T12:40:54;5.05;;;4.38;;
24813;SDS011;12904;50.088;11.414;2022-07-23T12:45:51;5.45;;;4.57;;
24813;SDS011;12904;50.088;11.414;2022-07-23T12:50:58;4.22;;;3.75;;
24813;SDS011;12904;50.088;11.414;2022-07-23T12:53:29;4.65;;;4.20;;
24813;SDS011;12904;50.088;11.414;2022-07-23T12:56:07;5.65;;;4.07;;
24813;SDS011;12904;50.088;11.414;2022-07-23T12:58:42;5.88;;;3.97;;
24813;SDS011;12904;50.088;11.414;2022-07-23T13:01:08;4.38;;;4.10;;
24813;SDS011;12904;50.088;11.414;2022-07-23T13:03:36;5.10;;;3.95;;
24813;SDS011;12904;50.088;11.414;2022-07-23T13:06:07;4.07;;;3.63;;
24813;SDS011;12904;50.088;11.414;2022-07-23T13:08:35;6.10;;;3.78;;
24813;SDS011;12904;50.088;11.414;2022-07-23T13:11:03;4.10;;;3.80;;
24813;SDS011;12904;50.088;11.414;2022-07-23T13:13:30;4.13;;;3.80;;
24813;SDS011;12904;50.088;11.414;2022-07-23T13:15:58;3.90;;;3.55;;
24813;SDS011;12904;50.088;11.414;2022-07-23T13:18:25;13.85;;;3.80;;
24813;SDS011;12904;50.088;11.414;2022-07-23T13:20:52;5.45;;;3.80;;
24813;SDS011;12904;50.088;11.414;2022-07-23T13:23:18;10.25;;;3.65;;
24813;SDS011;12904;50.088;11.414;2022-07-23T13:25:45;6.03;;;3.90;;
24813;SDS011;12904;50.088;11.414;2022-07-23T13:28:12;7.55;;;3.75;;
24813;SDS011;12904;50.088;11.414;2022-07-23T13:30:39;7.55;;;4.32;;
24813;SDS011;12904;50.088;11.414;2022-07-23T13:33:05;4.13;;;3.83;;
24813;SDS011;12904;50.088;11.414;2022-07-23T13:35:32;7.47;;;4.20;;
24813;SDS011;12904;50.088;11.414;2022-07-23T13:37:59;4.97;;;3.83;;
24813;SDS011;12904;50.088;11.414;2022-07-23T13:40:25;5.70;;;4.30;;
24813;SDS011;12904;50.088;11.414;2022-07-23T13:42:51;4.68;;;4.25;;
24813;SDS011;12904;50.088;11.414;2022-07-23T13:45:19;4.22;;;3.83;;
24813;SDS011;12904;50.088;11.414;2022-07-23T13:47:45;4.60;;;4.20;;
24813;SDS011;12904;50.088;11.414;2022-07-23T13:50:10;8.40;;;4.22;;
24813;SDS011;12904;50.088;11.414;2022-07-23T13:52:36;4.90;;;4.35;;
24813;SDS011;12904;50.088;11.414;2022-07-23T13:55:03;7.30;;;4.93;;
24813;SDS011;12904;50.088;11.414;2022-07-23T13:57:31;5.10;;;4.70;;
24813;SDS011;12904;50.088;11.414;2022-07-23T13:59:57;10.05;;;4.88;;
24813;SDS011;12904;50.088;11.414;2022-07-23T14:02:23;4.68;;;4.20;;
24813;SDS011;12904;50.088;11.414;2022-07-23T14:04:50;6.75;;;4.00;;
24813;SDS011;12904;50.088;11.414;2022-07-23T14:07:16;4.63;;;4.22;;
24813;SDS011;12904;50.088;11.414;2022-07-23T14:09:42;4.57;;;4.10;;
24813;SDS011;12904;50.088;11.414;2022-07-23T14:12:08;4.90;;;4.50;;
24813;SDS011;12904;50.088;11.414;2022-07-23T14:14:34;6.10;;;4.18;;
24813;SDS011;12904;50.088;11.414;2022-07-23T14:17:00;4.50;;;4.10;;
24813;SDS011;12904;50.088;11.414;2022-07-23T14:19:26;4.72;;;4.28;;
24813;SDS011;12904;50.088;11.414;2022-07-23T14:21:52;5.15;;;4.20;;
24813;SDS011;12904;50.088;11.414;2022-07-23T14:24:18;13.82;;;4.55;;
24813;SDS011;12904;50.088;11.414;2022-07-23T14:26:44;4.63;;;4.25;;
24813;SDS011;12904;50.088;11.414;2022-07-23T14:29:09;5.55;;;4.43;;
24813;SDS011;12904;50.088;11.414;2022-07-23T14:31:35;5.90;;;4.45;;
24813;SDS011;12904;50.088;11.414;2022-07-23T14:34:01;4.30;;;3.83;;
24813;SDS011;12904;50.088;11.414;2022-07-23T14:36:26;4.40;;;3.85;;
24813;SDS011;12904;50.088;11.414;2022-07-23T14:38:52;4.40;;;4.10;;
24813;SDS011;12904;50.088;11.414;2022-07-23T14:41:18;4.65;;;4.05;;
24813;SDS011;12904;50.088;11.414;2022-07-23T14:43:44;6.68;;;4.28;;
24813;SDS011;12904;50.088;11.414;2022-07-23T14:46:10;4.57;;;4.10;;
24813;SDS011;12904;50.088;11.414;2022-07-23T14:48:37;4.50;;;4.20;;
24813;SDS011;12904;50.088;11.414;2022-07-23T14:51:03;4.72;;;4.32;;
24813;SDS011;12904;50.088;11.414;2022-07-23T14:53:29;4.63;;;4.28;;
24813;SDS011;12904;50.088;11.414;2022-07-23T14:55:55;5.47;;;5.05;;
24813;SDS011;12904;50.088;11.414;2022-07-23T14:58:22;4.18;;;3.88;;
24813;SDS011;12904;50.088;11.414;2022-07-23T15:00:48;5.10;;;4.60;;
24813;SDS011;12904;50.088;11.414;2022-07-23T15:03:14;5.18;;;4.70;;
24813;SDS011;12904;50.088;11.414;2022-07-23T15:05:40;5.63;;;4.70;;
24813;SDS011;12904;50.088;11.414;2022-07-23T15:08:06;5.03;;;4.43;;
24813;SDS011;12904;50.088;11.414;2022-07-23T15:10:35;5.03;;;4.63;;
24813;SDS011;12904;50.088;11.414;2022-07-23T15:13:00;4.65;;;4.32;;
24813;SDS011;12904;50.088;11.414;2022-07-23T15:15:26;5.03;;;4.60;;
24813;SDS011;12904;50.088;11.414;2022-07-23T15:17:52;5.57;;;4.75;;
24813;SDS011;12904;50.088;11.414;2022-07-23T15:20:17;7.68;;;4.13;;
24813;SDS011;12904;50.088;11.414;2022-07-23T15:22:43;5.88;;;4.30;;
24813;SDS011;12904;50.088;11.414;2022-07-23T15:25:10;5.63;;;5.18;;
24813;SDS011;12904;50.088;11.414;2022-07-23T15:27:36;5.78;;;4.70;;
24813;SDS011;12904;50.088;11.414;2022-07-23T15:30:05;4.80;;;4.40;;
24813;SDS011;12904;50.088;11.414;2022-07-23T15:32:31;4.32;;;4.03;;